createdAt,value
2023-03-03T00:04:33.748Z,67.07
2023-03-03T00:08:00.065Z,67.12
2023-03-03T00:19:27.068Z,67.21
2023-03-03T00:23:00.340Z,67.27
2023-03-03T00:30:21.328Z,67.37
2023-03-03T00:33:57.792Z,67.34
2023-03-03T00:40:55.563Z,67.32
2023-03-03T00:44:20.956Z,67.28
2023-03-03T00:47:46.092Z,67.32
2023-03-03T00:54:29.171Z,67.45
2023-03-03T00:57:37.786Z,67.52
2023-03-03T01:00:56.563Z,67.65
2023-03-03T01:04:25.758Z,67.72
2023-03-03T01:07:53.632Z,67.78
2023-03-03T01:11:41.239Z,67.76
2023-03-03T01:15:05.427Z,67.65
2023-03-03T01:18:29.581Z,67.67
2023-03-03T01:25:23.745Z,67.76
2023-03-03T01:28:55.319Z,67.80
2023-03-03T01:32:12.188Z,67.86
2023-03-03T01:35:40.058Z,67.86
2023-03-03T01:39:02.154Z,67.91
2023-03-03T01:42:23.788Z,67.95
2023-03-03T01:45:50.929Z,68.01
2023-03-03T01:49:47.681Z,68.02
2023-03-03T01:53:03.489Z,68.02
2023-03-03T02:00:10.075Z,67.95
2023-03-03T02:07:22.825Z,67.79
2023-03-03T02:10:42.825Z,67.83
2023-03-03T02:13:59.948Z,67.91
2023-03-03T02:17:25.563Z,67.95
2023-03-03T02:21:11.217Z,67.95
2023-03-03T02:24:53.984Z,68.04
2023-03-03T02:28:30.159Z,68.11
2023-03-03T02:31:56.262Z,68.17
2023-03-03T02:35:27.777Z,68.23
2023-03-03T02:39:30.027Z,68.26
2023-03-03T02:42:55.553Z,68.23
2023-03-03T02:46:50.834Z,68.28
2023-03-03T02:50:18.938Z,68.33
2023-03-03T02:53:52.548Z,68.37
2023-03-03T02:57:13.671Z,68.39
2023-03-03T03:01:02.761Z,68.41
2023-03-03T03:04:31.266Z,68.46
2023-03-03T03:08:03.089Z,68.53
2023-03-03T03:11:46.418Z,68.63
2023-03-03T03:15:24.645Z,68.67
2023-03-03T03:18:48.124Z,68.81
2023-03-03T03:22:06.517Z,68.84
2023-03-03T03:25:20.313Z,68.87
2023-03-03T03:28:38.178Z,68.90
2023-03-03T03:31:57.364Z,68.97
2023-03-03T03:35:36.285Z,69.03
2023-03-03T03:39:02.430Z,68.97
2023-03-03T03:42:26.187Z,69.00
2023-03-03T03:45:42.251Z,69.00
2023-03-03T03:53:06.507Z,69.09
2023-03-03T03:56:25.464Z,69.16
2023-03-03T03:59:43.912Z,69.22
2023-03-03T04:02:56.430Z,69.16
2023-03-03T04:06:39.253Z,68.97
2023-03-03T04:10:08.942Z,68.81
2023-03-03T04:17:12.713Z,68.79
2023-03-03T04:24:37.316Z,68.99
2023-03-03T04:27:58.049Z,69.11
2023-03-03T04:34:38.366Z,69.28
2023-03-03T04:42:30.093Z,69.41
2023-03-03T04:45:54.285Z,69.41
2023-03-03T04:49:47.732Z,69.34
2023-03-03T04:57:36.213Z,69.25
2023-03-03T05:01:08.870Z,69.27
2023-03-03T05:04:28.957Z,69.29
2023-03-03T05:11:56.890Z,69.26
2023-03-03T05:15:19.226Z,69.26
2023-03-03T05:19:01.643Z,69.22
2023-03-03T05:22:31.919Z,69.26
2023-03-03T05:25:58.551Z,69.27
2023-03-03T05:52:01.262Z,69.23
2023-03-03T06:10:03.066Z,69.25
2023-03-03T06:17:37.815Z,69.09
2023-03-03T06:21:48.617Z,69.11
2023-03-03T06:25:27.450Z,69.19
2023-03-03T06:58:55.739Z,69.47
2023-03-03T07:06:54.071Z,69.40
2023-03-03T07:10:31.461Z,69.42
2023-03-03T07:24:53.892Z,69.17
2023-03-03T07:32:26.129Z,69.16
2023-03-03T07:46:38.100Z,69.19
2023-03-03T07:49:57.504Z,69.08
2023-03-03T09:51:03.656Z,68.33
2023-03-03T09:54:56.077Z,68.34
2023-03-03T10:07:03.840Z,68.22
2023-03-03T10:10:26.568Z,68.07
2023-03-03T10:14:25.989Z,67.96
2023-03-03T10:18:12.408Z,67.73
2023-03-03T10:21:59.952Z,67.81
2023-03-03T10:25:59.387Z,67.82
2023-03-03T10:29:47.311Z,67.72
2023-03-03T10:34:08.853Z,67.78
2023-03-03T10:41:52.523Z,67.51
2023-03-03T10:45:21.423Z,67.43
2023-03-03T10:49:26.569Z,67.70
2023-03-03T10:53:07.121Z,67.71
2023-03-03T11:01:24.732Z,67.58
2023-03-03T11:04:52.574Z,67.73
2023-03-03T11:08:31.241Z,67.54
2023-03-03T11:16:37.897Z,67.67
2023-03-03T11:20:19.522Z,67.78
2023-03-03T11:24:06.035Z,67.83
2023-03-03T11:35:03.190Z,67.61
2023-03-03T11:43:38.863Z,67.39
2023-03-03T11:51:38.486Z,67.35
2023-03-03T11:55:41.421Z,67.23
2023-03-03T12:06:46.679Z,67.33
2023-03-03T12:10:53.352Z,67.32
2023-03-03T12:14:45.854Z,67.28
2023-03-03T12:35:49.688Z,67.26
2023-03-03T12:39:41.724Z,67.28
2023-03-03T12:43:30.052Z,67.22
2023-03-03T12:47:05.501Z,67.26
2023-03-03T12:50:39.951Z,67.29
2023-03-03T13:02:14.750Z,67.46
2023-03-03T13:06:21.784Z,67.30
2023-03-03T13:09:53.294Z,67.29
2023-03-03T13:13:59.351Z,67.43
2023-03-03T13:32:19.094Z,67.24
2023-03-03T13:36:11.747Z,67.27
2023-03-03T13:39:36.126Z,67.37
2023-03-03T13:43:19.933Z,67.41
2023-03-03T14:02:28.159Z,67.38
2023-03-03T14:06:09.582Z,67.42
2023-03-03T14:24:42.309Z,67.42
2023-03-03T14:28:15.757Z,67.40
2023-03-03T14:31:39.949Z,67.39
2023-03-03T14:38:59.861Z,67.39
2023-03-03T14:42:22.099Z,67.31
2023-03-03T14:45:58.910Z,67.29
2023-03-03T14:49:15.806Z,67.21
2023-03-03T14:52:55.852Z,67.19
2023-03-03T14:56:54.054Z,67.22
2023-03-03T15:00:41.074Z,67.27
2023-03-03T15:04:32.847Z,67.33
2023-03-03T15:08:16.234Z,67.37
2023-03-03T15:11:44.632Z,67.29
2023-03-03T15:15:24.293Z,67.29
2023-03-03T15:19:45.414Z,67.30
2023-03-03T15:23:11.314Z,67.36
2023-03-03T15:27:11.156Z,67.37
2023-03-03T15:30:49.738Z,67.32
2023-03-03T15:34:34.049Z,67.31
2023-03-03T15:38:26.592Z,67.32
2023-03-03T15:42:17.717Z,67.24
2023-03-03T15:45:58.330Z,67.21
2023-03-03T15:49:38.492Z,67.29
2023-03-03T15:53:52.586Z,67.33
2023-03-03T16:01:41.537Z,67.26
2023-03-03T16:09:22.722Z,67.28
2023-03-03T16:17:01.674Z,67.36
2023-03-03T16:20:44.403Z,67.32
2023-03-03T16:24:17.907Z,67.30
2023-03-03T16:28:13.347Z,67.33
2023-03-03T16:32:01.864Z,67.32
2023-03-03T16:35:58.719Z,67.31
2023-03-03T16:39:35.221Z,67.34
2023-03-03T16:42:57.166Z,67.37
2023-03-03T16:46:44.877Z,67.33
2023-03-03T16:50:07.245Z,67.32
2023-03-03T16:54:00.692Z,67.30
2023-03-03T16:57:33.709Z,67.30
2023-03-03T17:01:23.064Z,67.31
2023-03-03T17:05:05.980Z,67.33
2023-03-03T17:08:50.979Z,67.36
2023-03-03T17:17:15.000Z,67.41
2023-03-03T17:24:58.730Z,67.39
2023-03-03T17:29:02.602Z,67.42
2023-03-03T17:32:37.834Z,67.42
2023-03-03T17:36:04.094Z,67.46
2023-03-03T17:39:38.416Z,67.42
2023-03-03T17:43:40.572Z,67.40
2023-03-03T17:47:08.550Z,67.43
2023-03-03T17:50:54.032Z,67.47
2023-03-03T17:54:54.561Z,67.52
2023-03-03T17:58:52.493Z,67.49
2023-03-03T18:03:04.089Z,67.43
2023-03-03T18:11:10.792Z,67.51
2023-03-03T18:14:46.424Z,67.53
2023-03-03T18:18:32.950Z,67.58
2023-03-03T18:22:37.320Z,67.61
2023-03-03T18:26:25.454Z,67.63
2023-03-03T18:30:00.714Z,67.71
2023-03-03T18:33:27.195Z,67.73
2023-03-03T18:36:59.511Z,67.77
2023-03-03T18:40:36.192Z,67.74
2023-03-03T18:44:05.707Z,67.74
2023-03-03T18:47:21.148Z,67.75
2023-03-03T18:50:50.507Z,67.69
2023-03-03T18:53:46.122Z,67.75
2023-03-03T18:57:16.958Z,67.77
2023-03-03T19:04:18.748Z,67.77
2023-03-03T19:08:07.833Z,67.68
2023-03-03T19:12:12.661Z,67.64
2023-03-03T19:15:59.213Z,67.69
2023-03-03T19:19:36.774Z,67.73
2023-03-03T19:23:11.815Z,67.78
2023-03-03T19:27:00.113Z,67.84
2023-03-03T19:30:52.366Z,67.91
2023-03-03T19:38:21.452Z,68.06
2023-03-03T19:42:10.211Z,68.04
2023-03-03T19:45:55.904Z,68.01
2023-03-03T19:49:32.792Z,68.03
2023-03-03T19:52:55.044Z,68.06
2023-03-03T19:56:37.824Z,68.10
2023-03-03T20:00:07.350Z,68.15
2023-03-03T20:04:05.562Z,68.13
2023-03-03T20:08:01.360Z,68.14
2023-03-03T20:11:43.091Z,68.19
2023-03-03T20:15:45.881Z,68.20
2023-03-03T20:19:29.731Z,68.20
2023-03-03T20:23:40.407Z,68.21
2023-03-03T20:27:20.365Z,68.22
2023-03-03T20:31:14.683Z,68.23
2023-03-03T20:35:10.046Z,68.23
2023-03-03T20:38:41.823Z,68.23
2023-03-03T20:42:25.861Z,68.28
2023-03-03T20:45:58.453Z,68.33
2023-03-03T20:49:49.573Z,68.33
2023-03-03T20:53:16.462Z,68.34
2023-03-03T21:00:30.538Z,68.38
2023-03-03T21:03:58.590Z,68.41
2023-03-03T21:10:34.809Z,68.50
2023-03-03T21:14:04.637Z,68.50
2023-03-03T21:17:27.545Z,68.43
2023-03-03T21:24:41.944Z,68.48
2023-03-03T21:28:06.156Z,68.50
2023-03-03T21:34:58.396Z,68.55
2023-03-03T21:38:16.889Z,68.58
2023-03-03T21:41:45.882Z,68.62
2023-03-03T21:48:44.700Z,68.63
2023-03-03T21:51:53.333Z,68.63
2023-03-03T21:55:11.077Z,68.65
2023-03-03T21:58:30.323Z,68.62
2023-03-03T22:06:02.296Z,68.63
2023-03-03T22:09:28.036Z,68.67
2023-03-03T22:12:52.042Z,68.73
2023-03-03T22:16:19.705Z,68.76
2023-03-03T22:19:50.455Z,68.73
2023-03-03T22:23:10.111Z,68.82
2023-03-03T22:26:33.675Z,68.80
2023-03-03T22:29:53.376Z,68.83
2023-03-03T22:33:18.599Z,68.76
2023-03-03T22:36:33.181Z,68.83
2023-03-03T22:43:35.493Z,68.83
2023-03-03T22:46:49.221Z,68.79
2023-03-03T22:50:09.831Z,68.84
2023-03-03T22:53:27.475Z,68.86
2023-03-03T23:00:15.034Z,68.89
2023-03-03T23:03:34.151Z,68.91
2023-03-03T23:06:51.456Z,68.94
2023-03-03T23:14:01.491Z,68.88
2023-03-03T23:17:27.608Z,68.90
2023-03-03T23:20:53.653Z,68.92
2023-03-03T23:28:01.075Z,68.92
2023-03-03T23:31:17.393Z,68.94
2023-03-03T23:38:13.516Z,68.96
2023-03-03T23:41:32.826Z,68.96
2023-03-03T23:44:49.833Z,68.97
2023-03-03T23:48:11.562Z,68.96
2023-03-03T23:51:39.333Z,68.93
2023-03-03T23:58:16.415Z,68.95
